sensor_id;sensor_type;location;lat;lon;timestamp;pressure;altitude;pressure_sealevel;temperature;humidity
46714;BME280;32445;51.376;10.874;2023-07-28T00:01:17;98331.34;;;20.79;58.89
46714;BME280;32445;51.376;10.874;2023-07-28T00:04:17;98337.56;;;20.78;58.96
46714;BME280;32445;51.376;10.874;2023-07-28T00:07:17;98329.94;;;20.75;59.31
46714;BME280;32445;51.376;10.874;2023-07-28T00:10:19;98321.31;;;20.73;59.39
46714;BME280;32445;51.376;10.874;2023-07-28T00:13:19;98323.94;;;20.73;59.43
46714;BME280;32445;51.376;10.874;2023-07-28T00:16:20;98321.31;;;20.73;59.48
46714;BME280;32445;51.376;10.874;2023-07-28T00:19:20;98322.16;;;20.73;59.22
46714;BME280;32445;51.376;10.874;2023-07-28T00:22:23;98318.81;;;20.71;59.07
46714;BME280;32445;51.376;10.874;2023-07-28T00:25:24;98315.50;;;20.69;59.08
46714;BME280;32445;51.376;10.874;2023-07-28T00:28:24;98323.53;;;20.68;59.37
46714;BME280;32445;51.376;10.874;2023-07-28T00:31:24;98310.22;;;20.69;59.35
46714;BME280;32445;51.376;10.874;2023-07-28T00:34:25;98308.84;;;20.75;59.15
46714;BME280;32445;51.376;10.874;2023-07-28T00:37:25;98313.16;;;20.76;59.05
46714;BME280;32445;51.376;10.874;2023-07-28T00:40:26;98307.59;;;20.79;58.92
46714;BME280;32445;51.376;10.874;2023-07-28T00:43:26;98305.09;;;20.78;59.00
46714;BME280;32445;51.376;10.874;2023-07-28T00:46:26;98312.03;;;20.79;58.87
46714;BME280;32445;51.376;10.874;2023-07-28T00:49:27;98312.75;;;20.81;58.39
46714;BME280;32445;51.376;10.874;2023-07-28T00:52:27;98305.78;;;20.80;58.83
46714;BME280;32445;51.376;10.874;2023-07-28T00:55:27;98310.13;;;20.81;58.80
46714;BME280;32445;51.376;10.874;2023-07-28T00:58:30;98303.03;;;20.81;58.72
46714;BME280;32445;51.376;10.874;2023-07-28T01:01:30;98303.03;;;20.81;58.82
46714;BME280;32445;51.376;10.874;2023-07-28T01:04:31;98305.78;;;20.80;58.80
46714;BME280;32445;51.376;10.874;2023-07-28T01:07:51;98296.22;;;20.79;59.21
46714;BME280;32445;51.376;10.874;2023-07-28T01:10:53;98295.94;;;20.82;58.84
46714;BME280;32445;51.376;10.874;2023-07-28T01:13:54;98291.38;;;20.84;58.44
46714;BME280;32445;51.376;10.874;2023-07-28T01:16:55;98290.56;;;20.83;58.55
46714;BME280;32445;51.376;10.874;2023-07-28T01:19:55;98288.88;;;20.82;58.92
46714;BME280;32445;51.376;10.874;2023-07-28T01:26:09;98285.38;;;20.82;58.68
46714;BME280;32445;51.376;10.874;2023-07-28T01:29:10;98288.03;;;20.82;58.66
46714;BME280;32445;51.376;10.874;2023-07-28T01:32:12;98290.56;;;20.83;58.34
46714;BME280;32445;51.376;10.874;2023-07-28T01:35:13;98306.38;;;20.83;58.39
46714;BME280;32445;51.376;10.874;2023-07-28T01:38:13;98310.66;;;20.84;58.33
46714;BME280;32445;51.376;10.874;2023-07-28T01:41:14;98306.38;;;20.83;58.40
46714;BME280;32445;51.376;10.874;2023-07-28T01:44:14;98302.06;;;20.82;58.53
46714;BME280;32445;51.376;10.874;2023-07-28T01:47:15;98299.97;;;20.76;58.84
46714;BME280;32445;51.376;10.874;2023-07-28T01:50:15;98293.97;;;20.74;58.96
46714;BME280;32445;51.376;10.874;2023-07-28T01:53:16;98308.97;;;20.73;59.04
46714;BME280;32445;51.376;10.874;2023-07-28T01:56:16;98301.34;;;20.70;59.11
46714;BME280;32445;51.376;10.874;2023-07-28T01:59:16;98304.22;;;20.67;58.78
46714;BME280;32445;51.376;10.874;2023-07-28T02:02:17;98306.03;;;20.67;59.07
46714;BME280;32445;51.376;10.874;2023-07-28T02:05:17;98304.22;;;20.67;59.18
46714;BME280;32445;51.376;10.874;2023-07-28T02:08:18;98303.50;;;20.65;59.57
46714;BME280;32445;51.376;10.874;2023-07-28T02:11:18;98301.97;;;20.63;59.11
46714;BME280;32445;51.376;10.874;2023-07-28T02:14:18;98297.53;;;20.63;59.37
46714;BME280;32445;51.376;10.874;2023-07-28T02:17:19;98306.28;;;20.64;59.53
46714;BME280;32445;51.376;10.874;2023-07-28T02:20:19;98314.19;;;20.64;59.33
46714;BME280;32445;51.376;10.874;2023-07-28T02:23:19;98300.03;;;20.65;59.56
46714;BME280;32445;51.376;10.874;2023-07-28T02:26:20;98299.19;;;20.64;59.48
46714;BME280;32445;51.376;10.874;2023-07-28T02:29:20;98290.47;;;20.64;59.55
46714;BME280;32445;51.376;10.874;2023-07-28T02:32:21;98294.31;;;20.60;59.56
46714;BME280;32445;51.376;10.874;2023-07-28T02:35:21;98305.56;;;20.62;59.59
46714;BME280;32445;51.376;10.874;2023-07-28T02:38:21;98296.69;;;20.63;59.93
46714;BME280;32445;51.376;10.874;2023-07-28T02:41:22;98293.38;;;20.61;59.66
46714;BME280;32445;51.376;10.874;2023-07-28T02:44:22;98297.66;;;20.62;59.65
46714;BME280;32445;51.376;10.874;2023-07-28T02:47:22;98298.50;;;20.62;59.60
46714;BME280;32445;51.376;10.874;2023-07-28T02:50:23;98305.56;;;20.62;59.50
46714;BME280;32445;51.376;10.874;2023-07-28T02:53:23;98301.81;;;20.64;59.44
46714;BME280;32445;51.376;10.874;2023-07-28T02:56:24;98315.88;;;20.65;59.09
46714;BME280;32445;51.376;10.874;2023-07-28T02:59:24;98309.59;;;20.66;59.35
46714;BME280;32445;51.376;10.874;2023-07-28T03:02:24;98324.72;;;20.64;59.39
46714;BME280;32445;51.376;10.874;2023-07-28T03:05:25;98334.44;;;20.63;59.54
46714;BME280;32445;51.376;10.874;2023-07-28T03:08:25;98330.97;;;20.63;59.22
46714;BME280;32445;51.376;10.874;2023-07-28T03:11:26;98330.13;;;20.62;59.55
46714;BME280;32445;51.376;10.874;2023-07-28T03:14:26;98338.06;;;20.62;59.32
46714;BME280;32445;51.376;10.874;2023-07-28T03:17:26;98336.22;;;20.63;59.17
46714;BME280;32445;51.376;10.874;2023-07-28T03:20:27;98343.31;;;20.62;59.19
46714;BME280;32445;51.376;10.874;2023-07-28T03:23:27;98350.28;;;20.63;59.08
46714;BME280;32445;51.376;10.874;2023-07-28T03:26:28;98334.44;;;20.63;59.01
46714;BME280;32445;51.376;10.874;2023-07-28T03:29:28;98347.50;;;20.65;58.80
46714;BME280;32445;51.376;10.874;2023-07-28T03:32:28;98353.72;;;20.64;59.12
46714;BME280;32445;51.376;10.874;2023-07-28T03:35:28;98346.22;;;20.59;58.89
46714;BME280;32445;51.376;10.874;2023-07-28T03:38:29;98355.91;;;20.58;59.13
46714;BME280;32445;51.376;10.874;2023-07-28T03:41:30;98359.66;;;20.56;58.93
46714;BME280;32445;51.376;10.874;2023-07-28T03:44:30;98367.41;;;20.48;59.24
46714;BME280;32445;51.376;10.874;2023-07-28T03:47:31;98356.53;;;20.41;59.73
46714;BME280;32445;51.376;10.874;2023-07-28T03:50:31;98358.59;;;20.37;59.47
46714;BME280;32445;51.376;10.874;2023-07-28T03:53:32;98359.56;;;20.36;59.58
46714;BME280;32445;51.376;10.874;2023-07-28T03:56:35;98358.03;;;20.34;59.88
46714;BME280;32445;51.376;10.874;2023-07-28T03:59:35;98361.59;;;20.33;60.14
46714;BME280;32445;51.376;10.874;2023-07-28T04:02:36;98359.09;;;20.31;60.27
46714;BME280;32445;51.376;10.874;2023-07-28T04:05:37;98357.56;;;20.29;60.14
46714;BME280;32445;51.376;10.874;2023-07-28T04:08:37;98359.50;;;20.27;60.44
46714;BME280;32445;51.376;10.874;2023-07-28T04:11:38;98353.28;;;20.28;60.32
46714;BME280;32445;51.376;10.874;2023-07-28T04:14:38;98361.06;;;20.29;60.25
46714;BME280;32445;51.376;10.874;2023-07-28T04:17:39;98360.91;;;20.31;60.12
46714;BME280;32445;51.376;10.874;2023-07-28T04:20:39;98362.84;;;20.29;60.41
46714;BME280;32445;51.376;10.874;2023-07-28T04:23:39;98365.88;;;20.24;60.28
46714;BME280;32445;51.376;10.874;2023-07-28T04:26:41;98359.19;;;20.20;60.46
46714;BME280;32445;51.376;10.874;2023-07-28T04:29:43;98363.75;;;20.18;60.72
46714;BME280;32445;51.376;10.874;2023-07-28T04:32:43;98365.56;;;20.17;60.53
46714;BME280;32445;51.376;10.874;2023-07-28T04:35:43;98361.38;;;20.15;60.78
46714;BME280;32445;51.376;10.874;2023-07-28T04:38:44;98360.41;;;20.16;60.57
46714;BME280;32445;51.376;10.874;2023-07-28T04:41:44;98362.22;;;20.15;60.68
46714;BME280;32445;51.376;10.874;2023-07-28T04:44:44;98367.88;;;20.11;61.08
46714;BME280;32445;51.376;10.874;2023-07-28T04:47:46;98367.28;;;20.07;60.94
46714;BME280;32445;51.376;10.874;2023-07-28T04:50:46;98370.03;;;20.05;61.05
46714;BME280;32445;51.376;10.874;2023-07-28T04:53:47;98370.91;;;20.06;61.38
46714;BME280;32445;51.376;10.874;2023-07-28T04:56:47;98372.69;;;20.05;61.14
46714;BME280;32445;51.376;10.874;2023-07-28T04:59:49;98375.31;;;20.05;61.05
46714;BME280;32445;51.376;10.874;2023-07-28T05:02:50;98373.66;;;20.04;61.01
46714;BME280;32445;51.376;10.874;2023-07-28T05:05:50;98377.13;;;20.05;60.89
46714;BME280;32445;51.376;10.874;2023-07-28T05:08:51;98373.41;;;20.08;60.99
46714;BME280;32445;51.376;10.874;2023-07-28T05:11:51;98380.31;;;20.09;61.01
46714;BME280;32445;51.376;10.874;2023-07-28T05:14:52;98390.63;;;20.12;60.82
46714;BME280;32445;51.376;10.874;2023-07-28T05:17:53;98391.84;;;20.08;61.15
46714;BME280;32445;51.376;10.874;2023-07-28T05:20:53;98389.91;;;20.10;61.04
46714;BME280;32445;51.376;10.874;2023-07-28T05:23:54;98383.53;;;20.12;60.71
46714;BME280;32445;51.376;10.874;2023-07-28T05:26:54;98400.03;;;20.14;60.80
46714;BME280;32445;51.376;10.874;2023-07-28T05:29:54;98405.56;;;20.11;60.66
46714;BME280;32445;51.376;10.874;2023-07-28T05:32:55;98402.94;;;20.11;60.58
46714;BME280;32445;51.376;10.874;2023-07-28T05:36:02;98404.75;;;20.11;60.97
46714;BME280;32445;51.376;10.874;2023-07-28T05:39:03;98407.25;;;20.12;60.88
46714;BME280;32445;51.376;10.874;2023-07-28T05:42:06;98414.06;;;20.15;60.92
46714;BME280;32445;51.376;10.874;2023-07-28T05:45:07;98423.41;;;20.19;60.61
46714;BME280;32445;51.376;10.874;2023-07-28T05:48:08;98422.28;;;20.21;60.63
46714;BME280;32445;51.376;10.874;2023-07-28T05:51:08;98423.13;;;20.22;60.65
46714;BME280;32445;51.376;10.874;2023-07-28T05:54:08;98423.13;;;20.22;60.56
46714;BME280;32445;51.376;10.874;2023-07-28T05:57:09;98427.41;;;20.23;60.28
46714;BME280;32445;51.376;10.874;2023-07-28T06:00:10;98438.81;;;20.23;60.29
46714;BME280;32445;51.376;10.874;2023-07-28T06:03:11;98443.13;;;20.25;60.31
46714;BME280;32445;51.376;10.874;2023-07-28T06:06:12;98440.38;;;20.26;60.50
46714;BME280;32445;51.376;10.874;2023-07-28T06:09:12;98447.28;;;20.27;60.68
46714;BME280;32445;51.376;10.874;2023-07-28T06:12:13;98446.06;;;20.31;60.49
46714;BME280;32445;51.376;10.874;2023-07-28T06:15:13;98443.03;;;20.36;60.33
46714;BME280;32445;51.376;10.874;2023-07-28T06:18:13;98453.09;;;20.42;60.13
46714;BME280;32445;51.376;10.874;2023-07-28T06:21:14;98458.78;;;20.47;60.17
46714;BME280;32445;51.376;10.874;2023-07-28T06:24:14;98461.19;;;20.50;60.06
46714;BME280;32445;51.376;10.874;2023-07-28T06:27:15;98468.97;;;20.52;60.18
46714;BME280;32445;51.376;10.874;2023-07-28T06:30:15;98471.09;;;20.58;60.00
46714;BME280;32445;51.376;10.874;2023-07-28T06:33:16;98462.66;;;20.64;59.98
46714;BME280;32445;51.376;10.874;2023-07-28T06:36:16;98468.84;;;20.74;59.81
46714;BME280;32445;51.376;10.874;2023-07-28T06:39:18;98470.25;;;20.79;59.91
46714;BME280;32445;51.376;10.874;2023-07-28T06:42:18;98472.75;;;20.80;59.78
46714;BME280;32445;51.376;10.874;2023-07-28T06:45:23;98473.63;;;20.81;60.32
46714;BME280;32445;51.376;10.874;2023-07-28T06:48:24;98470.97;;;20.81;59.64
46714;BME280;32445;51.376;10.874;2023-07-28T06:51:24;98481.94;;;20.86;59.99
46714;BME280;32445;51.376;10.874;2023-07-28T06:54:25;98477.97;;;20.91;59.77
46714;BME280;32445;51.376;10.874;2023-07-28T06:57:25;98478.41;;;20.97;60.07
46714;BME280;32445;51.376;10.874;2023-07-28T07:00:25;98483.16;;;21.03;59.99
46714;BME280;32445;51.376;10.874;2023-07-28T07:03:26;98475.56;;;21.09;59.80
46714;BME280;32445;51.376;10.874;2023-07-28T07:06:26;98476.69;;;21.17;59.56
46714;BME280;32445;51.376;10.874;2023-07-28T07:09:26;98470.75;;;21.24;59.25
46714;BME280;32445;51.376;10.874;2023-07-28T07:12:27;98472.88;;;21.31;59.23
46714;BME280;32445;51.376;10.874;2023-07-28T07:15:27;98474.81;;;21.38;59.16
46714;BME280;32445;51.376;10.874;2023-07-28T07:18:27;98472.34;;;21.47;59.23
46714;BME280;32445;51.376;10.874;2023-07-28T07:21:28;98474.34;;;21.54;58.98
46714;BME280;32445;51.376;10.874;2023-07-28T07:24:28;98469.09;;;21.64;58.41
46714;BME280;32445;51.376;10.874;2023-07-28T07:27:28;98475.22;;;21.74;58.47
46714;BME280;32445;51.376;10.874;2023-07-28T07:30:32;98477.19;;;21.82;58.09
46714;BME280;32445;51.376;10.874;2023-07-28T07:33:32;98480.25;;;21.87;58.12
46714;BME280;32445;51.376;10.874;2023-07-28T07:36:33;98490.25;;;21.93;57.98
46714;BME280;32445;51.376;10.874;2023-07-28T07:39:33;98486.66;;;21.94;57.95
46714;BME280;32445;51.376;10.874;2023-07-28T07:42:45;98483.19;;;21.94;57.68
46714;BME280;32445;51.376;10.874;2023-07-28T07:45:46;98484.72;;;21.97;57.67
46714;BME280;32445;51.376;10.874;2023-07-28T07:48:47;98485.56;;;22.07;57.46
46714;BME280;32445;51.376;10.874;2023-07-28T07:51:48;98484.16;;;22.12;56.99
46714;BME280;32445;51.376;10.874;2023-07-28T07:54:48;98490.00;;;22.16;56.84
46714;BME280;32445;51.376;10.874;2023-07-28T07:57:48;98491.25;;;22.22;56.73
46714;BME280;32445;51.376;10.874;2023-07-28T08:00:49;98495.84;;;22.29;56.49
46714;BME280;32445;51.376;10.874;2023-07-28T08:03:49;98485.84;;;22.33;56.58
46714;BME280;32445;51.376;10.874;2023-07-28T08:06:49;98493.94;;;22.41;56.27
46714;BME280;32445;51.376;10.874;2023-07-28T08:09:51;98500.59;;;22.45;56.43
46714;BME280;32445;51.376;10.874;2023-07-28T08:12:51;98506.44;;;22.49;56.56
46714;BME280;32445;51.376;10.874;2023-07-28T08:15:51;98497.09;;;22.55;56.13
46714;BME280;32445;51.376;10.874;2023-07-28T08:18:52;98497.25;;;22.63;55.89
46714;BME280;32445;51.376;10.874;2023-07-28T08:21:52;98499.16;;;22.71;55.97
46714;BME280;32445;51.376;10.874;2023-07-28T08:24:53;98501.41;;;22.75;55.82
46714;BME280;32445;51.376;10.874;2023-07-28T08:27:53;98510.44;;;22.83;55.55
46714;BME280;32445;51.376;10.874;2023-07-28T08:30:56;98515.44;;;22.86;54.96
46714;BME280;32445;51.376;10.874;2023-07-28T08:33:58;98499.41;;;22.87;54.70
46714;BME280;32445;51.376;10.874;2023-07-28T08:36:58;98515.16;;;22.89;54.97
46714;BME280;32445;51.376;10.874;2023-07-28T08:39:58;98512.06;;;22.93;54.74
46714;BME280;32445;51.376;10.874;2023-07-28T08:42:59;98524.72;;;22.99;54.30
46714;BME280;32445;51.376;10.874;2023-07-28T08:45:59;98523.22;;;22.97;54.04
46714;BME280;32445;51.376;10.874;2023-07-28T08:49:00;98525.56;;;23.00;53.98
46714;BME280;32445;51.376;10.874;2023-07-28T08:52:02;98538.38;;;23.05;54.17
46714;BME280;32445;51.376;10.874;2023-07-28T08:55:04;98535.28;;;23.09;54.03
46714;BME280;32445;51.376;10.874;2023-07-28T08:58:21;98547.00;;;23.17;54.02
46714;BME280;32445;51.376;10.874;2023-07-28T09:01:22;98550.19;;;23.20;53.33
46714;BME280;32445;51.376;10.874;2023-07-28T09:04:23;98553.00;;;23.19;53.14
46714;BME280;32445;51.376;10.874;2023-07-28T09:07:24;98542.94;;;23.22;53.57
46714;BME280;32445;51.376;10.874;2023-07-28T09:10:24;98552.81;;;23.30;53.37
46714;BME280;32445;51.376;10.874;2023-07-28T09:13:25;98550.00;;;23.41;53.19
46714;BME280;32445;51.376;10.874;2023-07-28T09:16:25;98550.22;;;23.48;53.40
46714;BME280;32445;51.376;10.874;2023-07-28T09:19:25;98560.25;;;23.54;53.03
46714;BME280;32445;51.376;10.874;2023-07-28T09:22:29;98558.13;;;23.58;52.75
46714;BME280;32445;51.376;10.874;2023-07-28T09:25:29;98554.63;;;23.67;52.52
46714;BME280;32445;51.376;10.874;2023-07-28T09:28:40;98566.16;;;23.76;52.46
46714;BME280;32445;51.376;10.874;2023-07-28T09:31:42;98566.53;;;23.81;52.00
46714;BME280;32445;51.376;10.874;2023-07-28T09:34:43;98567.06;;;23.84;52.23
46714;BME280;32445;51.376;10.874;2023-07-28T09:37:45;98563.84;;;23.91;52.01
46714;BME280;32445;51.376;10.874;2023-07-28T09:40:48;98564.25;;;23.96;52.13
46714;BME280;32445;51.376;10.874;2023-07-28T09:43:49;98567.81;;;24.05;51.75
46714;BME280;32445;51.376;10.874;2023-07-28T09:46:53;98572.22;;;24.14;51.63
46714;BME280;32445;51.376;10.874;2023-07-28T09:49:57;98560.03;;;24.21;51.23
46714;BME280;32445;51.376;10.874;2023-07-28T09:53:02;98570.03;;;24.27;51.04
46714;BME280;32445;51.376;10.874;2023-07-28T09:56:03;98573.22;;;24.31;50.91
46714;BME280;32445;51.376;10.874;2023-07-28T09:59:11;98562.00;;;24.37;50.93
46714;BME280;32445;51.376;10.874;2023-07-28T10:02:13;98555.47;;;24.49;51.11
46714;BME280;32445;51.376;10.874;2023-07-28T10:05:14;98559.47;;;24.63;50.73
46714;BME280;32445;51.376;10.874;2023-07-28T10:08:16;98562.84;;;24.74;49.81
46714;BME280;32445;51.376;10.874;2023-07-28T10:11:16;98552.66;;;24.87;49.69
46714;BME280;32445;51.376;10.874;2023-07-28T10:17:34;98562.88;;;25.00;48.53
46714;BME280;32445;51.376;10.874;2023-07-28T10:20:39;98569.91;;;25.09;48.20
46714;BME280;32445;51.376;10.874;2023-07-28T10:23:40;98561.31;;;25.15;47.88
46714;BME280;32445;51.376;10.874;2023-07-28T10:26:41;98561.53;;;25.22;48.04
46714;BME280;32445;51.376;10.874;2023-07-28T10:29:56;98560.72;;;25.30;47.70
46714;BME280;32445;51.376;10.874;2023-07-28T10:32:56;98563.53;;;25.46;47.96
46714;BME280;32445;51.376;10.874;2023-07-28T10:35:59;98557.75;;;25.59;47.70
46714;BME280;32445;51.376;10.874;2023-07-28T10:42:12;98567.63;;;25.83;47.08
46714;BME280;32445;51.376;10.874;2023-07-28T10:45:13;98574.81;;;25.91;46.94
46714;BME280;32445;51.376;10.874;2023-07-28T10:48:13;98575.16;;;25.96;46.83
46714;BME280;32445;51.376;10.874;2023-07-28T10:51:24;98576.53;;;26.00;47.07
46714;BME280;32445;51.376;10.874;2023-07-28T10:54:25;98571.41;;;26.07;46.94
46714;BME280;32445;51.376;10.874;2023-07-28T10:57:26;98571.94;;;26.11;46.88
46714;BME280;32445;51.376;10.874;2023-07-28T11:00:27;98569.09;;;26.12;46.47
46714;BME280;32445;51.376;10.874;2023-07-28T11:03:28;98569.75;;;26.14;46.28
46714;BME280;32445;51.376;10.874;2023-07-28T11:06:29;98580.91;;;26.18;46.85
46714;BME280;32445;51.376;10.874;2023-07-28T11:09:29;98577.25;;;26.27;46.53
46714;BME280;32445;51.376;10.874;2023-07-28T11:12:30;98573.47;;;26.38;46.04
46714;BME280;32445;51.376;10.874;2023-07-28T11:15:30;98572.97;;;26.51;45.81
46714;BME280;32445;51.376;10.874;2023-07-28T11:18:33;98569.97;;;26.62;45.75
46714;BME280;32445;51.376;10.874;2023-07-28T11:21:38;98566.53;;;26.70;45.47
46714;BME280;32445;51.376;10.874;2023-07-28T11:24:39;98561.84;;;26.72;44.94
46714;BME280;32445;51.376;10.874;2023-07-28T11:27:40;98567.00;;;26.82;44.81
46714;BME280;32445;51.376;10.874;2023-07-28T11:30:40;98557.69;;;26.94;44.60
46714;BME280;32445;51.376;10.874;2023-07-28T11:33:42;98553.34;;;27.01;44.00
46714;BME280;32445;51.376;10.874;2023-07-28T11:36:42;98560.00;;;27.05;43.77
46714;BME280;32445;51.376;10.874;2023-07-28T11:39:43;98560.13;;;27.12;43.67
46714;BME280;32445;51.376;10.874;2023-07-28T11:42:45;98564.47;;;27.21;43.05
46714;BME280;32445;51.376;10.874;2023-07-28T11:45:46;98563.09;;;27.42;42.95
46714;BME280;32445;51.376;10.874;2023-07-28T11:48:46;98560.38;;;27.58;42.85
46714;BME280;32445;51.376;10.874;2023-07-28T11:51:51;98560.97;;;27.77;42.50
46714;BME280;32445;51.376;10.874;2023-07-28T11:54:52;98557.75;;;27.90;41.47
46714;BME280;32445;51.376;10.874;2023-07-28T11:57:53;98562.06;;;27.99;41.75
46714;BME280;32445;51.376;10.874;2023-07-28T12:00:54;98560.69;;;28.03;41.60
46714;BME280;32445;51.376;10.874;2023-07-28T12:03:54;98570.00;;;28.07;40.88
46714;BME280;32445;51.376;10.874;2023-07-28T12:10:06;98572.66;;;28.16;41.17
46714;BME280;32445;51.376;10.874;2023-07-28T12:13:09;98568.72;;;28.26;41.32
46714;BME280;32445;51.376;10.874;2023-07-28T12:16:09;98566.81;;;28.35;40.90
46714;BME280;32445;51.376;10.874;2023-07-28T12:19:10;98573.00;;;28.36;41.65
46714;BME280;32445;51.376;10.874;2023-07-28T12:22:10;98556.91;;;28.44;41.29
46714;BME280;32445;51.376;10.874;2023-07-28T12:25:12;98563.50;;;28.56;40.57
46714;BME280;32445;51.376;10.874;2023-07-28T12:28:12;98563.47;;;28.64;40.31
46714;BME280;32445;51.376;10.874;2023-07-28T12:31:13;98569.09;;;28.70;39.87
46714;BME280;32445;51.376;10.874;2023-07-28T12:34:13;98565.63;;;28.61;39.75
46714;BME280;32445;51.376;10.874;2023-07-28T12:37:14;98566.16;;;28.64;40.37
46714;BME280;32445;51.376;10.874;2023-07-28T12:40:14;98562.31;;;28.67;40.60
46714;BME280;32445;51.376;10.874;2023-07-28T12:43:14;98567.53;;;28.75;40.91
46714;BME280;32445;51.376;10.874;2023-07-28T12:46:15;98568.91;;;28.94;40.69
46714;BME280;32445;51.376;10.874;2023-07-28T12:49:15;98563.13;;;29.21;40.01
46714;BME280;32445;51.376;10.874;2023-07-28T12:52:15;98566.84;;;29.34;39.32
46714;BME280;32445;51.376;10.874;2023-07-28T12:55:16;98575.03;;;29.48;39.56
46714;BME280;32445;51.376;10.874;2023-07-28T12:58:16;98575.03;;;29.63;38.43
46714;BME280;32445;51.376;10.874;2023-07-28T13:01:17;98575.94;;;29.70;38.62
46714;BME280;32445;51.376;10.874;2023-07-28T13:04:18;98581.56;;;29.90;38.26
46714;BME280;32445;51.376;10.874;2023-07-28T13:07:18;98588.72;;;30.05;38.38
46714;BME280;32445;51.376;10.874;2023-07-28T13:10:19;98589.28;;;30.15;37.63
46714;BME280;32445;51.376;10.874;2023-07-28T13:13:19;98587.22;;;30.17;37.99
46714;BME280;32445;51.376;10.874;2023-07-28T13:16:19;98587.69;;;30.20;37.31
46714;BME280;32445;51.376;10.874;2023-07-28T13:19:19;98582.69;;;30.17;38.13
46714;BME280;32445;51.376;10.874;2023-07-28T13:22:20;98583.53;;;30.18;37.88
46714;BME280;32445;51.376;10.874;2023-07-28T13:25:20;98595.78;;;30.27;37.17
46714;BME280;32445;51.376;10.874;2023-07-28T13:28:20;98584.28;;;30.48;37.67
46714;BME280;32445;51.376;10.874;2023-07-28T13:31:21;98587.75;;;30.64;37.19
46714;BME280;32445;51.376;10.874;2023-07-28T13:34:21;98573.25;;;30.80;38.07
46714;BME280;32445;51.376;10.874;2023-07-28T13:37:21;98566.50;;;30.91;37.49
46714;BME280;32445;51.376;10.874;2023-07-28T13:40:22;98570.84;;;30.92;36.47
46714;BME280;32445;51.376;10.874;2023-07-28T13:43:22;98573.13;;;30.95;36.86
46714;BME280;32445;51.376;10.874;2023-07-28T13:46:22;98572.00;;;31.04;36.10
46714;BME280;32445;51.376;10.874;2023-07-28T13:49:23;98567.38;;;31.19;35.90
46714;BME280;32445;51.376;10.874;2023-07-28T13:52:23;98568.88;;;31.29;35.42
46714;BME280;32445;51.376;10.874;2023-07-28T13:55:23;98570.75;;;31.35;34.89
46714;BME280;32445;51.376;10.874;2023-07-28T13:58:24;98570.13;;;31.33;34.58
46714;BME280;32445;51.376;10.874;2023-07-28T14:01:24;98574.31;;;31.42;35.04
46714;BME280;32445;51.376;10.874;2023-07-28T14:04:25;98591.66;;;31.46;35.11
46714;BME280;32445;51.376;10.874;2023-07-28T14:07:25;98588.56;;;31.43;34.79
46714;BME280;32445;51.376;10.874;2023-07-28T14:10:26;98595.75;;;31.42;35.11
46714;BME280;32445;51.376;10.874;2023-07-28T14:13:27;98598.69;;;31.47;34.99
46714;BME280;32445;51.376;10.874;2023-07-28T14:16:27;98596.25;;;31.52;35.12
46714;BME280;32445;51.376;10.874;2023-07-28T14:19:27;98593.41;;;31.61;35.19
46714;BME280;32445;51.376;10.874;2023-07-28T14:22:28;98590.59;;;31.76;34.60
46714;BME280;32445;51.376;10.874;2023-07-28T14:25:28;98591.84;;;31.73;34.07
46714;BME280;32445;51.376;10.874;2023-07-28T14:28:28;98607.06;;;31.66;34.17
46714;BME280;32445;51.376;10.874;2023-07-28T14:31:29;98603.91;;;31.55;34.49
46714;BME280;32445;51.376;10.874;2023-07-28T14:34:29;98603.25;;;31.53;34.63
46714;BME280;32445;51.376;10.874;2023-07-28T14:37:29;98608.00;;;31.51;34.79
46714;BME280;32445;51.376;10.874;2023-07-28T14:40:30;98604.44;;;31.44;35.11
46714;BME280;32445;51.376;10.874;2023-07-28T14:43:30;98602.09;;;31.34;35.19
46714;BME280;32445;51.376;10.874;2023-07-28T14:46:30;98599.56;;;31.26;35.40
46714;BME280;32445;51.376;10.874;2023-07-28T14:49:31;98612.31;;;31.17;35.48
46714;BME280;32445;51.376;10.874;2023-07-28T14:52:31;98610.28;;;30.98;35.95
46714;BME280;32445;51.376;10.874;2023-07-28T14:55:32;98621.25;;;30.81;36.37
46714;BME280;32445;51.376;10.874;2023-07-28T14:58:32;98621.59;;;30.71;36.65
46714;BME280;32445;51.376;10.874;2023-07-28T15:01:33;98622.56;;;30.64;37.13
46714;BME280;32445;51.376;10.874;2023-07-28T15:04:33;98616.72;;;30.60;37.58
46714;BME280;32445;51.376;10.874;2023-07-28T15:07:34;98615.66;;;30.54;37.42
46714;BME280;32445;51.376;10.874;2023-07-28T15:10:35;98616.41;;;30.48;37.51
46714;BME280;32445;51.376;10.874;2023-07-28T15:13:36;98618.09;;;30.49;38.09
46714;BME280;32445;51.376;10.874;2023-07-28T15:16:36;98615.47;;;30.56;37.87
46714;BME280;32445;51.376;10.874;2023-07-28T15:19:36;98614.44;;;30.57;37.51
46714;BME280;32445;51.376;10.874;2023-07-28T15:22:37;98614.63;;;30.56;37.72
46714;BME280;32445;51.376;10.874;2023-07-28T15:25:37;98608.66;;;30.53;37.85
46714;BME280;32445;51.376;10.874;2023-07-28T15:28:42;98610.63;;;30.66;38.28
46714;BME280;32445;51.376;10.874;2023-07-28T15:31:42;98607.88;;;30.81;38.81
46714;BME280;32445;51.376;10.874;2023-07-28T15:34:43;98600.84;;;31.02;38.21
46714;BME280;32445;51.376;10.874;2023-07-28T15:37:44;98592.91;;;31.15;37.54
46714;BME280;32445;51.376;10.874;2023-07-28T15:40:45;98593.13;;;31.20;37.55
46714;BME280;32445;51.376;10.874;2023-07-28T15:43:45;98599.63;;;31.33;36.72
46714;BME280;32445;51.376;10.874;2023-07-28T15:46:45;98598.69;;;31.47;36.74
46714;BME280;32445;51.376;10.874;2023-07-28T15:49:46;98604.53;;;31.57;36.31
46714;BME280;32445;51.376;10.874;2023-07-28T15:52:46;98598.78;;;31.61;36.55
46714;BME280;32445;51.376;10.874;2023-07-28T15:55:46;98607.31;;;31.71;36.79
46714;BME280;32445;51.376;10.874;2023-07-28T15:58:47;98603.81;;;31.77;36.13